createdAt,value
2018-02-04T00:00:09.894Z,100584.36
2018-02-04T00:02:44.245Z,100594.23
2018-02-04T00:05:17.219Z,100600.65
2018-02-04T00:07:48.417Z,100605.63
2018-02-04T00:10:19.392Z,100606.30
2018-02-04T00:12:51.849Z,100614.59
2018-02-04T00:15:23.572Z,100620.37
2018-02-04T00:17:54.490Z,100626.49
2018-02-04T00:20:25.460Z,100618.12
2018-02-04T00:22:57.432Z,100639.48
2018-02-04T00:25:28.636Z,100632.39
2018-02-04T00:28:00.453Z,100638.17
2018-02-04T00:30:31.461Z,100639.66
2018-02-04T00:33:04.016Z,100640.75
2018-02-04T00:35:34.566Z,100648.92
2018-02-04T00:38:08.349Z,100642.20
2018-02-04T00:40:42.023Z,100649.88
2018-02-04T00:43:12.957Z,100656.48
2018-02-04T00:45:43.506Z,100651.05
2018-02-04T00:48:13.962Z,100660.87
2018-02-04T00:50:44.655Z,100666.56
2018-02-04T00:53:16.243Z,100674.76
2018-02-04T00:55:46.472Z,100676.28
2018-02-04T00:58:17.622Z,100679.43
2018-02-04T01:00:48.257Z,100679.20
2018-02-04T01:03:18.649Z,100684.50
2018-02-04T01:05:49.578Z,100690.14
2018-02-04T01:08:22.796Z,100695.41
2018-02-04T01:10:53.280Z,100702.53
2018-02-04T01:13:23.568Z,100707.98
2018-02-04T01:15:54.524Z,100704.77
2018-02-04T01:18:24.836Z,100704.69
2018-02-04T01:20:55.458Z,100715.13
2018-02-04T01:23:27.873Z,100709.17
2018-02-04T01:26:06.210Z,100711.27
2018-02-04T01:28:36.912Z,100723.34
2018-02-04T01:31:08.706Z,100727.47
2018-02-04T01:33:38.995Z,100738.38
2018-02-04T01:36:09.633Z,100750.23
2018-02-04T01:38:40.313Z,100744.67
2018-02-04T01:41:11.236Z,100744.52
2018-02-04T01:43:41.711Z,100753.38
2018-02-04T01:46:13.278Z,100755.69
2018-02-04T01:48:43.642Z,100759.55
2018-02-04T01:51:14.037Z,100766.44
2018-02-04T01:53:44.694Z,100763.63
2018-02-04T01:56:15.063Z,100766.44
2018-02-04T01:58:45.415Z,100765.67
2018-02-04T02:01:15.687Z,100770.40
2018-02-04T02:03:45.953Z,100773.11
2018-02-04T02:06:16.596Z,100775.16
2018-02-04T02:08:46.988Z,100772.03
2018-02-04T02:11:18.016Z,100768.63
2018-02-04T02:13:48.604Z,100774.19
2018-02-04T02:16:19.406Z,100781.77
2018-02-04T02:18:50.921Z,100780.69
2018-02-04T02:21:22.431Z,100783.48
2018-02-04T02:23:52.762Z,100793.34
2018-02-04T02:26:23.248Z,100792.22
2018-02-04T02:28:53.816Z,100799.70
2018-02-04T02:31:24.575Z,100802.31
2018-02-04T02:33:55.473Z,100809.91
2018-02-04T02:36:25.895Z,100808.78
2018-02-04T02:38:56.413Z,100807.72
2018-02-04T02:41:28.189Z,100805.56
2018-02-04T02:43:58.849Z,100816.24
2018-02-04T02:46:29.685Z,100820.89
2018-02-04T02:49:09.454Z,100823.85
2018-02-04T02:51:39.940Z,100822.95
2018-02-04T02:54:11.300Z,100831.77
2018-02-04T02:56:41.873Z,100836.20
2018-02-04T02:59:12.335Z,100838.28
2018-02-04T03:01:43.582Z,100842.64
2018-02-04T03:04:14.098Z,100846.63
2018-02-04T03:06:44.778Z,100856.73
2018-02-04T03:09:16.148Z,100859.09
2018-02-04T03:11:46.429Z,100866.73
2018-02-04T03:16:55.074Z,100871.80
2018-02-04T03:19:26.251Z,100880.38
2018-02-04T03:21:57.700Z,100886.03
2018-02-04T03:24:28.388Z,100888.00
2018-02-04T03:26:59.171Z,100891.67
2018-02-04T03:29:31.443Z,100888.11
2018-02-04T03:32:02.852Z,100882.08
2018-02-04T03:34:34.090Z,100886.09
2018-02-04T03:37:05.545Z,100894.30
2018-02-04T03:39:36.787Z,100897.39
2018-02-04T03:42:07.731Z,100905.70
2018-02-04T03:44:38.817Z,100918.67
2018-02-04T03:47:09.756Z,100913.62
2018-02-04T03:49:41.125Z,100922.73
2018-02-04T03:52:11.609Z,100933.20
2018-02-04T03:54:42.417Z,100939.98
2018-02-04T03:57:12.612Z,100940.17
2018-02-04T03:59:43.371Z,100950.82
2018-02-04T04:02:13.925Z,100952.67
2018-02-04T04:04:46.574Z,100958.00
2018-02-04T04:07:17.191Z,100964.22
2018-02-04T04:09:47.583Z,100966.67
2018-02-04T04:12:19.357Z,100983.88
2018-02-04T04:14:49.621Z,100976.45
2018-02-04T04:17:24.556Z,100980.50
2018-02-04T04:19:55.253Z,100986.46
2018-02-04T04:22:25.698Z,100992.39
2018-02-04T04:24:56.640Z,100995.63
2018-02-04T04:27:28.012Z,100996.09
2018-02-04T04:29:59.656Z,101001.98
2018-02-04T04:32:30.061Z,101000.72
2018-02-04T04:35:00.245Z,101002.38
2018-02-04T04:37:30.869Z,101016.31
2018-02-04T04:40:02.301Z,101010.77
2018-02-04T04:42:32.589Z,101017.59
2018-02-04T04:45:05.690Z,101019.02
2018-02-04T04:47:35.969Z,101029.98
2018-02-04T04:50:06.678Z,101029.66
2018-02-04T04:52:36.870Z,101030.20
2018-02-04T04:55:07.439Z,101033.56
2018-02-04T04:57:38.479Z,101034.30
2018-02-04T05:00:10.115Z,101037.42
2018-02-04T05:02:41.342Z,101037.66
2018-02-04T05:05:12.435Z,101036.87
2018-02-04T05:07:43.362Z,101049.71
2018-02-04T05:10:14.291Z,101057.72
2018-02-04T05:12:45.652Z,101055.99
2018-02-04T05:15:18.132Z,101061.91
2018-02-04T05:17:48.484Z,101073.56
2018-02-04T05:20:19.115Z,101076.03
2018-02-04T05:22:49.298Z,101082.33
2018-02-04T05:25:20.246Z,101089.14
2018-02-04T05:27:50.610Z,101090.14
2018-02-04T05:30:21.102Z,101095.75
2018-02-04T05:32:51.620Z,101094.08
2018-02-04T05:35:22.025Z,101099.92
2018-02-04T05:37:52.278Z,101099.77
2018-02-04T05:40:22.914Z,101101.86
2018-02-04T05:42:53.483Z,101112.91
2018-02-04T05:45:24.095Z,101117.41
2018-02-04T05:47:55.029Z,101117.95
2018-02-04T05:50:25.513Z,101114.52
2018-02-04T05:52:55.842Z,101119.47
2018-02-04T05:55:26.731Z,101130.11
2018-02-04T05:57:57.142Z,101129.39
2018-02-04T06:00:29.040Z,101124.20
2018-02-04T06:02:59.245Z,101135.30
2018-02-04T06:05:29.549Z,101136.78
2018-02-04T06:08:00.487Z,101140.22
2018-02-04T06:10:31.852Z,101147.63
2018-02-04T06:13:07.589Z,101158.50
2018-02-04T06:15:38.979Z,101160.91
2018-02-04T06:18:09.451Z,101164.48
2018-02-04T06:20:41.396Z,101170.22
2018-02-04T06:23:12.246Z,101177.36
2018-02-04T06:25:44.400Z,101181.33
2018-02-04T06:28:14.787Z,101179.46
2018-02-04T06:30:45.253Z,101192.08
2018-02-04T06:33:15.993Z,101192.41
2018-02-04T06:35:50.979Z,101201.91
2018-02-04T06:38:21.565Z,101205.03
2018-02-04T06:40:51.819Z,101210.42
2018-02-04T06:43:22.301Z,101207.89
2018-02-04T06:45:52.875Z,101211.88
2018-02-04T06:48:23.195Z,101219.07
2018-02-04T06:50:53.645Z,101217.72
2018-02-04T06:53:24.058Z,101218.73
2018-02-04T06:55:55.404Z,101210.32
2018-02-04T06:58:26.019Z,101231.25
2018-02-04T07:00:57.184Z,101233.68
2018-02-04T07:03:28.306Z,101234.20
2018-02-04T07:05:58.854Z,101235.87
2018-02-04T07:08:30.344Z,101242.95
2018-02-04T07:11:02.996Z,101248.83
2018-02-04T07:13:34.001Z,101251.94
2018-02-04T07:16:06.182Z,101256.95
2018-02-04T07:18:38.064Z,101259.32
2018-02-04T07:21:10.018Z,101264.55
2018-02-04T07:23:40.853Z,101258.97
2018-02-04T07:26:11.367Z,101266.38
2018-02-04T07:28:41.956Z,101273.41
2018-02-04T07:31:12.681Z,101280.25
2018-02-04T07:33:43.114Z,101279.99
2018-02-04T07:36:13.701Z,101287.22
2018-02-04T07:38:45.085Z,101296.93
2018-02-04T07:41:15.632Z,101293.58
2018-02-04T07:43:49.036Z,101291.48
2018-02-04T07:46:19.632Z,101295.98
2018-02-04T07:48:52.452Z,101302.63
2018-02-04T07:51:22.807Z,101305.09
2018-02-04T07:53:55.147Z,101312.08
2018-02-04T07:56:26.332Z,101308.93
2018-02-04T07:58:57.135Z,101312.34
2018-02-04T08:01:29.280Z,101314.27
2018-02-04T08:04:00.666Z,101315.89
2018-02-04T08:06:33.255Z,101314.52
2018-02-04T08:09:06.752Z,101329.34
2018-02-04T08:11:38.228Z,101330.76
2018-02-04T08:14:09.817Z,101326.69
2018-02-04T08:16:41.265Z,101328.73
2018-02-04T08:19:12.986Z,101325.09
2018-02-04T08:21:46.099Z,101327.02
2018-02-04T08:24:16.567Z,101325.02
2018-02-04T08:26:48.491Z,101330.66
2018-02-04T08:29:19.384Z,101329.27
2018-02-04T08:31:50.344Z,101333.61
2018-02-04T08:34:20.858Z,101338.48
2018-02-04T08:36:52.289Z,101340.77
2018-02-04T08:39:23.044Z,101336.19
2018-02-04T08:41:54.053Z,101348.15
2018-02-04T08:44:24.461Z,101358.19
2018-02-04T08:46:55.563Z,101362.13
2018-02-04T08:49:26.238Z,101362.95
2018-02-04T08:51:56.762Z,101370.50
2018-02-04T08:54:27.628Z,101363.67
2018-02-04T08:56:58.422Z,101372.86
2018-02-04T08:59:29.913Z,101372.66
2018-02-04T09:02:05.949Z,101375.08
2018-02-04T09:04:36.382Z,101388.20
2018-02-04T09:07:07.725Z,101372.64
2018-02-04T09:09:38.371Z,101393.19
2018-02-04T09:12:10.890Z,101392.94
2018-02-04T09:14:42.230Z,101397.56
2018-02-04T09:17:12.947Z,101399.31
2018-02-04T09:19:44.777Z,101398.23
2018-02-04T09:22:16.609Z,101400.78
2018-02-04T09:24:47.441Z,101395.22
2018-02-04T09:27:18.882Z,101408.02
2018-02-04T09:29:50.637Z,101413.33
2018-02-04T09:32:21.591Z,101422.47
2018-02-04T09:34:52.639Z,101423.56
2018-02-04T09:37:24.334Z,101427.81
2018-02-04T09:39:54.853Z,101428.95
2018-02-04T09:42:26.561Z,101431.34
2018-02-04T09:44:57.236Z,101438.06
2018-02-04T09:47:29.163Z,101440.16
2018-02-04T09:49:59.999Z,101445.28
2018-02-04T09:52:31.097Z,101443.31
2018-02-04T09:55:01.527Z,101440.21
2018-02-04T09:57:32.164Z,101444.42
2018-02-04T10:00:06.213Z,101445.62
2018-02-04T10:02:37.250Z,101457.23
2018-02-04T10:05:19.176Z,101445.37
2018-02-04T10:07:52.156Z,101456.70
2018-02-04T10:10:24.302Z,101466.82
2018-02-04T10:12:55.804Z,101461.12
2018-02-04T10:15:30.412Z,101467.59
2018-02-04T10:18:04.475Z,101463.84
2018-02-04T10:20:35.345Z,101473.55
2018-02-04T10:23:05.869Z,101467.97
2018-02-04T10:25:40.473Z,101441.27
2018-02-04T10:28:11.991Z,101469.80
2018-02-04T10:30:43.593Z,101475.20
2018-02-04T10:33:13.862Z,101472.57
2018-02-04T10:35:44.958Z,101480.39
2018-02-04T10:38:17.657Z,101482.16
2018-02-04T10:40:53.558Z,101485.55
2018-02-04T10:43:25.859Z,101479.84
2018-02-04T10:46:05.418Z,101497.08
2018-02-04T10:48:37.814Z,101487.98
2018-02-04T10:51:13.393Z,101494.27
2018-02-04T10:53:44.891Z,101496.92
2018-02-04T11:00:50.144Z,101495.38
2018-02-04T11:03:21.123Z,101500.09
2018-02-04T11:05:53.483Z,101505.46
2018-02-04T11:08:23.946Z,101499.99
2018-02-04T11:10:55.826Z,101514.88
2018-02-04T11:13:28.502Z,101516.06
2018-02-04T11:15:59.353Z,101515.53
2018-02-04T11:18:30.093Z,101520.12
2018-02-04T11:21:00.792Z,101522.19
2018-02-04T11:23:31.434Z,101510.30
2018-02-04T11:26:03.306Z,101534.22
2018-02-04T11:28:33.929Z,101527.98
2018-02-04T11:31:13.304Z,101538.05
2018-02-04T11:33:44.907Z,101538.46
2018-02-04T11:36:16.361Z,101538.30
2018-02-04T11:38:48.075Z,101549.84
2018-02-04T11:41:18.954Z,101555.86
2018-02-04T11:43:49.692Z,101555.09
2018-02-04T11:46:26.515Z,101556.42
2018-02-04T11:48:58.024Z,101554.95
2018-02-04T11:51:31.611Z,101549.33
2018-02-04T11:54:04.221Z,101550.77
2018-02-04T11:56:35.171Z,101554.20
2018-02-04T11:59:08.008Z,101557.56
2018-02-04T12:01:40.361Z,101548.73
2018-02-04T12:04:12.031Z,101560.34
2018-02-04T12:06:42.370Z,101565.42
2018-02-04T12:09:12.663Z,101575.78
2018-02-04T12:11:43.414Z,101564.51
2018-02-04T12:14:14.816Z,101570.06
2018-02-04T12:16:46.538Z,101574.73
2018-02-04T12:19:17.228Z,101578.95
2018-02-04T12:21:47.646Z,101575.55
2018-02-04T12:24:18.019Z,101561.33
2018-02-04T12:26:48.813Z,101570.55
2018-02-04T12:29:20.901Z,101586.59
2018-02-04T12:31:51.578Z,101582.41
2018-02-04T12:34:25.137Z,101589.93
2018-02-04T12:36:57.020Z,101595.37
2018-02-04T12:39:27.493Z,101602.39
2018-02-04T12:41:59.080Z,101603.34
2018-02-04T12:44:29.880Z,101603.94
2018-02-04T12:47:01.990Z,101607.80
2018-02-04T12:49:39.830Z,101608.16
2018-02-04T12:52:11.516Z,101611.61
2018-02-04T12:54:50.781Z,101609.30
2018-02-04T12:57:27.008Z,101617.45
2018-02-04T12:59:58.593Z,101610.48
2018-02-04T13:02:30.358Z,101617.86
2018-02-04T13:05:00.958Z,101611.24
2018-02-04T13:07:31.665Z,101624.61
2018-02-04T13:10:02.972Z,101618.29
2018-02-04T13:12:33.543Z,101625.18
2018-02-04T13:15:08.679Z,101629.92
2018-02-04T13:17:42.073Z,101630.69
2018-02-04T13:20:15.043Z,101637.48
2018-02-04T13:22:46.245Z,101634.33
2018-02-04T13:25:18.312Z,101638.60
2018-02-04T13:28:06.962Z,101640.92
2018-02-04T13:30:40.361Z,101650.70
2018-02-04T13:33:12.857Z,101641.72
2018-02-04T13:35:46.804Z,101642.52
2018-02-04T13:38:21.139Z,101647.57
2018-02-04T13:40:52.813Z,101647.77
2018-02-04T13:45:55.282Z,101648.69
2018-02-04T13:48:27.246Z,101654.91
2018-02-04T13:50:59.146Z,101646.38
2018-02-04T13:53:30.215Z,101650.45
2018-02-04T13:56:01.726Z,101656.56
2018-02-04T13:58:38.521Z,101654.63
2018-02-04T14:01:09.681Z,101663.34
2018-02-04T14:03:40.090Z,101661.03
2018-02-04T14:06:10.547Z,101653.64
2018-02-04T14:08:41.888Z,101669.61
2018-02-04T14:11:14.941Z,101669.78
2018-02-04T14:13:46.174Z,101673.55
2018-02-04T14:16:17.055Z,101669.20
2018-02-04T14:18:49.526Z,101676.50
2018-02-04T14:21:20.635Z,101684.04
2018-02-04T14:23:52.840Z,101683.91
2018-02-04T14:26:24.434Z,101693.34
2018-02-04T14:28:54.804Z,101697.14
2018-02-04T14:31:26.863Z,101695.85
2018-02-04T14:33:57.149Z,101692.45
2018-02-04T14:36:28.364Z,101693.44
2018-02-04T14:38:58.944Z,101700.06
2018-02-04T14:41:29.426Z,101702.83
2018-02-04T14:44:21.425Z,101700.55
2018-02-04T14:50:11.549Z,101715.17
2018-02-04T14:52:59.303Z,101710.28
2018-02-04T14:55:35.662Z,101717.19
2018-02-04T14:58:06.677Z,101715.73
2018-02-04T15:00:37.540Z,101698.17
2018-02-04T15:03:09.317Z,101719.77
2018-02-04T15:05:41.934Z,101722.28
2018-02-04T15:08:12.900Z,101720.59
2018-02-04T15:10:43.250Z,101731.08
2018-02-04T15:13:13.933Z,101736.78
2018-02-04T15:15:44.803Z,101735.58
2018-02-04T15:18:15.316Z,101732.24
2018-02-04T15:20:46.885Z,101742.72
2018-02-04T15:23:17.312Z,101745.63
2018-02-04T15:25:47.768Z,101743.92
2018-02-04T15:28:18.423Z,101750.05
2018-02-04T15:30:49.064Z,101748.66
2018-02-04T15:33:19.474Z,101752.95
2018-02-04T15:35:50.898Z,101760.45
2018-02-04T15:38:21.279Z,101761.09
2018-02-04T15:40:52.111Z,101767.49
2018-02-04T15:43:24.847Z,101766.55
2018-02-04T15:45:57.299Z,101770.59
2018-02-04T15:48:36.487Z,101777.57
2018-02-04T15:51:13.184Z,101780.64
2018-02-04T15:53:45.021Z,101777.64
2018-02-04T15:56:15.490Z,101781.19
2018-02-04T15:58:46.242Z,101794.95
2018-02-04T16:01:46.804Z,101790.86
2018-02-04T16:04:18.015Z,101797.39
2018-02-04T16:06:48.904Z,101797.98
2018-02-04T16:09:19.918Z,101807.07
2018-02-04T16:11:50.639Z,101803.80
2018-02-04T16:14:22.431Z,101811.37
2018-02-04T16:16:57.462Z,101803.09
2018-02-04T16:19:29.993Z,101810.19
2018-02-04T16:22:01.544Z,101809.08
2018-02-04T16:24:33.244Z,101816.94
2018-02-04T16:27:03.943Z,101817.30
2018-02-04T16:29:35.804Z,101815.30
2018-02-04T16:32:06.723Z,101819.35
2018-02-04T16:34:37.562Z,101825.55
2018-02-04T16:37:09.010Z,101814.62
2018-02-04T16:39:39.635Z,101823.27
2018-02-04T16:42:11.155Z,101811.75
2018-02-04T16:44:41.496Z,101817.19
2018-02-04T16:47:12.579Z,101811.23
2018-02-04T16:49:44.445Z,101814.67
2018-02-04T16:52:17.031Z,101816.39
2018-02-04T16:54:47.726Z,101820.71
2018-02-04T16:57:18.794Z,101823.98
2018-02-04T16:59:49.324Z,101827.07
2018-02-04T17:02:24.198Z,101829.87
2018-02-04T17:04:54.777Z,101831.05
2018-02-04T17:07:27.103Z,101840.61
2018-02-04T17:10:06.982Z,101851.16
2018-02-04T17:12:38.385Z,101846.85
2018-02-04T17:15:09.664Z,101831.06
2018-02-04T17:17:43.136Z,101847.02
2018-02-04T17:20:16.130Z,101850.32
2018-02-04T17:22:47.441Z,101849.48
2018-02-04T17:25:18.731Z,101849.03
2018-02-04T17:27:53.585Z,101842.00
2018-02-04T17:30:24.525Z,101842.44
2018-02-04T17:32:55.039Z,101847.49
2018-02-04T17:35:37.105Z,101847.13
2018-02-04T17:38:07.748Z,101853.36
2018-02-04T17:40:38.554Z,101851.56
2018-02-04T17:43:10.168Z,101856.18
2018-02-04T17:45:41.080Z,101861.25
2018-02-04T17:48:11.970Z,101859.19
2018-02-04T17:50:42.982Z,101866.75
2018-02-04T17:53:14.178Z,101874.52
2018-02-04T17:55:44.860Z,101877.35
2018-02-04T17:58:15.435Z,101872.30
2018-02-04T18:00:46.713Z,101874.11
2018-02-04T18:03:20.374Z,101876.32
2018-02-04T18:05:51.376Z,101872.30
2018-02-04T18:08:23.041Z,101871.90
2018-02-04T18:10:58.942Z,101883.12
2018-02-04T18:13:30.677Z,101880.52
2018-02-04T18:16:04.480Z,101889.22
2018-02-04T18:18:36.763Z,101900.75
2018-02-04T18:21:08.551Z,101887.06
2018-02-04T18:23:40.676Z,101896.62
2018-02-04T18:26:11.917Z,101902.42
2018-02-04T18:28:42.427Z,101908.24
2018-02-04T18:31:15.332Z,101903.84
2018-02-04T18:33:46.799Z,101912.36
2018-02-04T18:36:18.017Z,101915.30
2018-02-04T18:38:49.817Z,101925.53
2018-02-04T18:41:23.577Z,101923.41
2018-02-04T18:43:54.525Z,101923.88
2018-02-04T18:46:26.460Z,101929.73
2018-02-04T18:48:57.483Z,101928.47
2018-02-04T18:51:28.117Z,101938.44
2018-02-04T18:54:00.560Z,101934.81
2018-02-04T18:56:31.902Z,101935.47
2018-02-04T18:59:02.938Z,101931.83
2018-02-04T19:01:35.231Z,101944.52
2018-02-04T19:04:06.975Z,101945.64
2018-02-04T19:06:39.016Z,101945.39
2018-02-04T19:09:10.518Z,101952.12
2018-02-04T19:11:41.155Z,101954.41
2018-02-04T19:14:14.619Z,101960.41
2018-02-04T19:16:46.432Z,101950.64
2018-02-04T19:19:17.132Z,101958.34
2018-02-04T19:21:47.714Z,101962.02
2018-02-04T19:24:19.753Z,101965.42
2018-02-04T19:26:51.069Z,101964.63
2018-02-04T19:29:22.211Z,101941.68
2018-02-04T19:31:53.326Z,101980.37
2018-02-04T19:34:24.647Z,101968.28
2018-02-04T19:36:57.103Z,101980.81
2018-02-04T19:39:28.764Z,101977.87
2018-02-04T19:41:59.137Z,101973.85
2018-02-04T19:44:30.856Z,101982.25
2018-02-04T19:47:02.442Z,101988.75
2018-02-04T19:49:33.325Z,101980.76
2018-02-04T19:52:04.669Z,101987.30
2018-02-04T19:54:40.092Z,101992.08
2018-02-04T19:57:10.880Z,101988.24
2018-02-04T19:59:41.473Z,101999.00
2018-02-04T20:02:14.510Z,101993.89
2018-02-04T20:04:46.363Z,101987.44
2018-02-04T20:07:26.448Z,101996.70
2018-02-04T20:09:57.692Z,101999.42
2018-02-04T20:12:28.592Z,102000.91
2018-02-04T20:15:15.840Z,102001.68
2018-02-04T20:21:08.975Z,101998.59
2018-02-04T20:23:49.001Z,102010.18
2018-02-04T20:26:21.504Z,102000.63
2018-02-04T20:28:52.914Z,102011.75
2018-02-04T20:31:24.065Z,102011.00
2018-02-04T20:35:04.708Z,102016.58
2018-02-04T20:37:40.186Z,102014.69
2018-02-04T20:40:11.861Z,102017.38
2018-02-04T20:42:43.623Z,102023.19
2018-02-04T20:45:16.906Z,102007.70
2018-02-04T20:47:49.510Z,102024.38
2018-02-04T20:50:20.876Z,102033.84
2018-02-04T20:52:52.756Z,102032.42
2018-02-04T20:55:24.442Z,102035.78
2018-02-04T20:57:54.884Z,102029.73
2018-02-04T21:00:26.343Z,102044.92
2018-02-04T21:02:56.827Z,102036.45
2018-02-04T21:05:27.308Z,102049.77
2018-02-04T21:07:58.565Z,102044.70
2018-02-04T21:10:28.906Z,102042.72
2018-02-04T21:12:59.502Z,102046.91
2018-02-04T21:15:30.258Z,102050.09
2018-02-04T21:18:00.638Z,102043.95
2018-02-04T21:20:36.292Z,102049.38
2018-02-04T21:23:06.764Z,102048.31
2018-02-04T21:25:37.956Z,102048.03
2018-02-04T21:28:08.884Z,102055.65
2018-02-04T21:30:40.110Z,102047.91
2018-02-04T21:33:11.119Z,102054.79
2018-02-04T21:35:42.897Z,102054.81
2018-02-04T21:38:14.053Z,102054.36
2018-02-04T21:40:44.695Z,102052.42
2018-02-04T21:43:16.217Z,102046.59
2018-02-04T21:45:48.852Z,102053.14
2018-02-04T21:48:19.417Z,102059.22
2018-02-04T21:50:50.690Z,102048.27
2018-02-04T21:53:22.021Z,102055.32
2018-02-04T21:55:52.979Z,102051.73
2018-02-04T21:58:24.470Z,102054.00
2018-02-04T22:01:02.056Z,102053.92
2018-02-04T22:03:33.116Z,102059.80
2018-02-04T22:06:04.165Z,102059.82
2018-02-04T22:08:34.988Z,102060.56
2018-02-04T22:11:07.587Z,102055.48
2018-02-04T22:13:39.241Z,102058.52
2018-02-04T22:16:09.745Z,102045.70
2018-02-04T22:18:41.641Z,102065.73
2018-02-04T22:21:12.878Z,102070.31
2018-02-04T22:23:44.332Z,102071.00
2018-02-04T22:26:15.186Z,102070.05
2018-02-04T22:28:46.037Z,102070.55
2018-02-04T22:31:17.226Z,102067.55
2018-02-04T22:33:48.547Z,102075.80
2018-02-04T22:36:22.848Z,102075.70
2018-02-04T22:39:04.116Z,102076.11
2018-02-04T22:41:36.161Z,102083.84
2018-02-04T22:44:06.598Z,102085.50
2018-02-04T22:46:45.094Z,102078.78
2018-02-04T22:49:15.936Z,102071.74
2018-02-04T22:51:46.439Z,102092.02
2018-02-04T22:54:17.346Z,102094.44
2018-02-04T22:56:47.805Z,102094.31
2018-02-04T22:59:18.377Z,102102.42
2018-02-04T23:01:49.587Z,102106.36
2018-02-04T23:04:20.751Z,102106.91
2018-02-04T23:06:52.736Z,102107.34
2018-02-04T23:09:24.081Z,102102.08
2018-02-04T23:11:55.401Z,102103.31
2018-02-04T23:14:26.852Z,102101.77
2018-02-04T23:16:58.584Z,102108.52
2018-02-04T23:19:29.462Z,102104.39
2018-02-04T23:22:00.525Z,102107.28
2018-02-04T23:24:31.746Z,102102.13
2018-02-04T23:27:04.976Z,102104.16
2018-02-04T23:29:36.085Z,102087.91
2018-02-04T23:32:07.321Z,102090.77
2018-02-04T23:34:38.532Z,102086.23
2018-02-04T23:37:09.127Z,102087.20
2018-02-04T23:39:40.878Z,102091.11
2018-02-04T23:42:12.343Z,102087.55
2018-02-04T23:44:43.332Z,102087.47
2018-02-04T23:47:14.771Z,102071.51
2018-02-04T23:49:45.701Z,102084.78
2018-02-04T23:54:57.804Z,102082.89
2018-02-04T23:57:28.741Z,102085.20
